Flight Track Log - Related Links

Times and Time Zones

All times are in EDT time to prevent confusion due to time zone crossing. See the EMD28 flight status page for this flight to view local times or setup timezone preferences in your user account.

Time Position Orientation Groundspeed Altitude Reporting Facility
EDT Latitude Longitude Course Direction KTS MPH feet Rate Location/Type
Sun 07:21:52 AM 33.9000 -84.2500 57° Northeast 136 157 3,000  Level Atlanta TRACON
Sun 07:22:34 AM 33.9000 -84.2167 90° East 142 163 3,800 1,211 Climbing Atlanta TRACON
Sun 07:23:46 AM 33.9167 -84.1500 73° East 158 182 5,300 1,286 Climbing Atlanta TRACON
Sun 07:24:40 AM 33.9167 -84.1167 90° East 159 183 6,500 1,333 Climbing Atlanta TRACON
Sun 07:25:34 AM 33.9333 -84.0667 68° East 151 174 7,700 1,200 Climbing Atlanta TRACON
Sun 07:26:40 AM 33.9500 -84.0167 68° East 153 176 8,900 667 Climbing Atlanta TRACON
Sun 07:27:00 AM 34.0333 -83.9656 57° Northeast  Level Estimated
Sun 07:27:40 AM 33.9500 -83.9500 90° East 198 228 9,100  Level Atlanta TRACON
Sun 07:28:34 AM 33.9500 -83.9000 90° East 180 207 10,200 1,059 Climbing Atlanta TRACON
Sun 07:29:05 AM 33.9528 -83.8633 85° East 177 204 10,600 527 Climbing Atlanta Center
Sun 07:30:05 AM 33.9528 -83.8058 90° East 198 228 11,000 200 Climbing Atlanta Center
Sun 07:31:05 AM 33.9503 -83.7383 93° East 205 236 11,000  Level Atlanta Center
Sun 07:32:05 AM 33.9564 -83.6656 84° East 219 252 11,000  Level Atlanta Center
Sun 07:33:05 AM 33.9917 -83.6003 57° Northeast 214 246 11,000  Level Atlanta Center
Sun 07:34:05 AM 34.0269 -83.5350 57° Northeast 229 264 11,000  Level Atlanta Center
Sun 07:35:05 AM 34.0622 -83.4694 57° Northeast 229 264 11,000  Level Atlanta Center
Sun 07:36:05 AM 34.0972 -83.3992 59° Northeast 229 264 11,000  Level Atlanta Center
Sun 07:37:05 AM 34.1325 -83.3336 57° Northeast 229 264 11,000  Level Atlanta Center
Sun 07:38:05 AM 34.1697 -83.2706 54° Northeast 234 269 11,000  Level Atlanta Center
Sun 07:39:05 AM 34.2006 -83.2025 61° Northeast 228 262 11,000  Level Atlanta Center
Sun 07:40:05 AM 34.2375 -83.1392 55° Northeast 228 262 11,000  Level Atlanta Center
Sun 07:41:05 AM 34.2664 -83.0711 63° Northeast 228 262 11,000  Level Atlanta Center
Sun 07:42:05 AM 34.2992 -83.0053 59° Northeast 228 262 11,000  Level Atlanta Center
Sun 07:43:05 AM 34.3361 -82.9419 55° Northeast 228 262 11,000  Level Atlanta Center
Sun 07:44:05 AM 34.3689 -82.8761 59° Northeast 228 262 11,000 -50 Level Atlanta Center
Sun 07:45:05 AM 34.3997 -82.8103 60° Northeast 228 262 10,900 -700 Descending Atlanta Center
Sun 07:46:05 AM 34.4428 -82.7467 51° Northeast 233 268 9,600 -1,450 Descending Atlanta Center
Sun 07:47:05 AM 34.4817 -82.6706 58° Northeast 249 287 8,000 -1,550 Descending Atlanta Center
Sun 07:48:05 AM 34.5269 -82.6092 48° Northeast 249 287 6,500 -1,350 Descending Atlanta Center
Sun 07:49:05 AM 34.5783 -82.5603 38° Northeast 237 273 5,300 -1,250 Descending Atlanta Center
Sun 07:50:05 AM 34.6258 -82.5142 39° Northeast 232 267 4,000 -1,250 Descending Atlanta Center
Sun 07:51:05 AM 34.6775 -82.4628 39° Northeast 232 267 2,800 -1,200 Descending Atlanta Center
Sun 07:53:00 AM 34.7458 -82.3708 39° Northeast  Level FlightAware Approximate
Sun 08:00:00 AM 34.7500 -82.3667 39° Northeast  Level FlightAware Approximate
Sun 08:01:00 AM 34.7583 -82.3764 39° Northeast  Level Estimated

Login

Don't have an account? Register now (free) for customized features, flight alerts, and more!